Terminal Aerodrome Forecast
Issued by NWS

Home | Current Version | Previous Version | Text Only | Print | Product List | Glossary Off
Versions: 1 2 3 4 5 6 7 8 9 10 11 12 13 14 15 16 17

000
FTUS41 KCLE 162300
TAFFDY
TAF
KFDY 162338Z 1700/1724 18003KT P6SM OVC020
     FM170300 18003KT P6SM SCT007 OVC015
     FM170600 18004KT P6SM OVC007
     FM171400 30005KT P6SM SCT010=

USA.gov is the U.S. government's official web portal to all federal, state and local government web resources and services.